createdAt,value
2022-11-05T00:00:35.915Z,13.45
2022-11-05T00:03:21.263Z,12.50
2022-11-05T00:06:10.488Z,9.10
2022-11-05T00:08:57.779Z,17.05
2022-11-05T00:11:45.435Z,12.07
2022-11-05T00:14:31.157Z,9.95
2022-11-05T00:16:58.821Z,3.70
2022-11-05T00:19:26.483Z,3.05
2022-11-05T00:22:11.684Z,2.90
2022-11-05T00:24:58.307Z,3.72
2022-11-05T00:27:26.000Z,6.60
2022-11-05T00:29:53.729Z,5.55
2022-11-05T00:32:23.009Z,9.05
2022-11-05T00:34:50.692Z,4.55
2022-11-05T00:37:18.378Z,4.18
2022-11-05T00:39:47.583Z,4.15
2022-11-05T00:42:33.177Z,4.97
2022-11-05T00:45:04.084Z,3.05
2022-11-05T00:47:50.426Z,2.20
2022-11-05T00:50:19.323Z,4.50
2022-11-05T00:52:57.044Z,2.10
2022-11-05T00:55:29.560Z,5.05
2022-11-05T00:57:58.511Z,4.35
2022-11-05T01:00:28.523Z,3.72
2022-11-05T01:02:58.962Z,8.75
2022-11-05T01:05:28.938Z,7.38
2022-11-05T01:07:57.039Z,6.75
2022-11-05T01:10:26.521Z,7.78
2022-11-05T01:12:54.557Z,6.55
2022-11-05T01:15:25.022Z,10.50
2022-11-05T01:17:53.194Z,6.50
2022-11-05T01:20:20.937Z,9.73
2022-11-05T01:22:48.626Z,5.18
2022-11-05T01:25:16.456Z,5.70
2022-11-05T01:27:45.547Z,8.20
2022-11-05T01:30:14.149Z,5.22
2022-11-05T01:32:41.898Z,3.97
2022-11-05T01:35:13.066Z,9.05
2022-11-05T01:37:40.821Z,9.70
2022-11-05T01:40:11.433Z,7.45
2022-11-05T01:42:39.120Z,8.52
2022-11-05T01:45:16.821Z,6.25
2022-11-05T01:47:53.248Z,7.78
2022-11-05T01:50:31.239Z,4.97
2022-11-05T01:53:04.115Z,8.60
2022-11-05T01:55:36.593Z,6.68
2022-11-05T01:58:08.119Z,7.38
2022-11-05T02:00:37.592Z,5.70
2022-11-05T02:03:05.569Z,7.15
2022-11-05T02:05:34.494Z,9.85
2022-11-05T02:08:02.707Z,11.77
2022-11-05T02:10:30.430Z,10.77
2022-11-05T02:12:58.109Z,13.02
2022-11-05T02:15:30.713Z,11.80
2022-11-05T02:18:15.269Z,13.88
2022-11-05T02:20:52.359Z,13.27
2022-11-05T02:23:55.546Z,11.35
2022-11-05T02:26:50.846Z,10.25
2022-11-05T02:29:39.963Z,13.85
2022-11-05T02:32:14.552Z,8.73
2022-11-05T02:34:52.604Z,11.85
2022-11-05T02:37:33.345Z,10.25
2022-11-05T02:40:11.755Z,10.45
2022-11-05T02:42:46.409Z,11.85
2022-11-05T02:45:26.699Z,13.27
2022-11-05T02:48:08.433Z,17.77
2022-11-05T02:50:44.366Z,14.68
2022-11-05T02:53:17.694Z,10.73
2022-11-05T02:55:50.461Z,13.95
2022-11-05T02:58:18.132Z,16.60
2022-11-05T03:00:50.618Z,14.75
2022-11-05T03:03:27.552Z,14.70
2022-11-05T03:06:31.587Z,15.07
2022-11-05T03:09:13.356Z,12.75
2022-11-05T03:11:56.354Z,11.63
2022-11-05T03:14:31.748Z,12.88
2022-11-05T03:17:08.484Z,17.10
2022-11-05T03:19:44.061Z,14.48
2022-11-05T03:22:15.289Z,18.42
2022-11-05T03:24:50.100Z,5.93
2022-11-05T03:27:23.478Z,13.85
2022-11-05T03:29:57.172Z,14.60
2022-11-05T03:32:27.091Z,11.05
2022-11-05T03:35:02.315Z,14.63
2022-11-05T03:37:34.745Z,18.20
2022-11-05T03:40:07.200Z,18.17
2022-11-05T03:42:39.224Z,16.98
2022-11-05T03:45:11.448Z,10.50
2022-11-05T03:47:42.913Z,13.93
2022-11-05T03:50:20.006Z,15.73
2022-11-05T03:52:54.018Z,11.63
2022-11-05T03:55:25.248Z,11.95
2022-11-05T03:57:56.247Z,13.45
2022-11-05T04:00:24.536Z,16.38
2022-11-05T04:02:52.536Z,9.90
2022-11-05T04:05:21.660Z,15.70
2022-11-05T04:08:11.394Z,18.95
2022-11-05T04:10:59.060Z,19.58
2022-11-05T04:13:27.595Z,17.55
2022-11-05T04:16:16.476Z,7.32
2022-11-05T04:18:44.511Z,17.02
2022-11-05T04:21:31.488Z,17.33
2022-11-05T04:24:12.749Z,17.65
2022-11-05T04:26:43.598Z,14.50
2022-11-05T04:29:28.903Z,15.38
2022-11-05T04:31:56.678Z,16.15
2022-11-05T04:34:24.538Z,16.73
2022-11-05T04:36:53.766Z,17.60
2022-11-05T04:39:22.592Z,21.05
2022-11-05T04:41:50.282Z,19.73
2022-11-05T04:44:18.039Z,19.13
2022-11-05T04:46:45.697Z,23.17
2022-11-05T04:49:13.408Z,20.17
2022-11-05T04:51:41.099Z,23.42
2022-11-05T04:54:10.141Z,19.77
2022-11-05T04:56:37.793Z,20.52
2022-11-05T04:59:05.488Z,19.35
2022-11-05T05:01:33.387Z,22.27
2022-11-05T05:04:01.291Z,18.40
2022-11-05T05:06:28.993Z,22.83
2022-11-05T05:08:56.715Z,19.10
2022-11-05T05:11:25.768Z,16.83
2022-11-05T05:13:53.414Z,17.52
2022-11-05T05:16:22.651Z,20.48
2022-11-05T05:18:50.888Z,24.73
2022-11-05T05:21:37.946Z,21.27
2022-11-05T05:24:08.615Z,19.20
2022-11-05T05:26:38.461Z,30.90
2022-11-05T05:29:08.122Z,23.65
2022-11-05T05:31:36.111Z,22.00
2022-11-05T05:34:03.791Z,24.48
2022-11-05T05:36:31.942Z,24.20
2022-11-05T05:38:59.627Z,23.38
2022-11-05T05:41:27.438Z,25.83
2022-11-05T05:43:56.468Z,22.30
2022-11-05T05:46:24.142Z,27.33
2022-11-05T05:48:53.078Z,26.27
2022-11-05T05:51:20.940Z,25.20
2022-11-05T05:53:48.588Z,23.40
2022-11-05T05:56:20.551Z,24.77
2022-11-05T05:58:48.640Z,20.15
2022-11-05T06:01:19.997Z,16.98
2022-11-05T06:03:48.195Z,18.40
2022-11-05T06:06:19.694Z,30.25
2022-11-05T06:08:47.851Z,21.15
2022-11-05T06:11:15.820Z,27.92
2022-11-05T06:13:43.525Z,25.38
2022-11-05T06:16:11.588Z,15.00
2022-11-05T06:18:40.765Z,25.23
2022-11-05T06:21:10.477Z,19.17
2022-11-05T06:23:40.070Z,26.38
2022-11-05T06:26:10.199Z,30.98
2022-11-05T06:28:38.083Z,26.45
2022-11-05T06:31:07.132Z,28.52
2022-11-05T06:33:34.841Z,28.13
2022-11-05T06:36:05.739Z,25.67
2022-11-05T06:38:34.837Z,21.60
2022-11-05T06:41:09.867Z,24.10
2022-11-05T06:43:38.187Z,17.50
2022-11-05T06:46:06.587Z,11.23
2022-11-05T06:48:34.495Z,19.98
2022-11-05T06:51:02.420Z,25.52
2022-11-05T06:53:32.140Z,29.17
2022-11-05T06:56:03.149Z,24.02
2022-11-05T06:58:31.840Z,22.88
2022-11-05T07:01:02.114Z,22.30
2022-11-05T07:03:30.401Z,15.45
2022-11-05T07:06:00.133Z,25.08
2022-11-05T07:08:28.006Z,23.38
2022-11-05T07:10:57.075Z,32.28
2022-11-05T07:13:24.775Z,20.67
2022-11-05T07:15:52.449Z,23.85
2022-11-05T07:18:20.338Z,20.50
2022-11-05T07:20:48.855Z,16.88
2022-11-05T07:23:17.069Z,27.15
2022-11-05T07:25:45.970Z,20.98
2022-11-05T07:28:15.340Z,21.55
2022-11-05T07:30:43.188Z,21.73
2022-11-05T07:33:13.617Z,28.08
2022-11-05T07:35:41.540Z,28.90
2022-11-05T07:38:09.442Z,29.98
2022-11-05T07:40:37.217Z,28.13
2022-11-05T07:43:04.930Z,19.95
2022-11-05T07:45:33.968Z,16.02
2022-11-05T07:48:03.781Z,18.17
2022-11-05T07:50:33.229Z,20.00
2022-11-05T07:53:02.048Z,23.08
2022-11-05T07:55:30.462Z,27.67
2022-11-05T07:57:58.242Z,14.73
2022-11-05T08:00:27.734Z,19.33
2022-11-05T08:03:09.301Z,12.70
2022-11-05T08:05:39.350Z,25.13
2022-11-05T08:08:08.534Z,22.35
2022-11-05T08:10:37.434Z,19.65
2022-11-05T08:13:06.148Z,18.38
2022-11-05T08:15:34.436Z,12.75
2022-11-05T08:18:05.399Z,11.30
2022-11-05T08:20:34.189Z,8.70
2022-11-05T08:23:02.256Z,9.63
2022-11-05T08:25:30.352Z,10.45
2022-11-05T08:27:59.224Z,7.53
2022-11-05T08:30:27.171Z,9.75
2022-11-05T08:32:58.522Z,10.98
2022-11-05T08:35:27.979Z,11.90
2022-11-05T08:37:58.950Z,7.38
2022-11-05T08:40:26.916Z,11.73
2022-11-05T08:42:57.173Z,13.00
2022-11-05T08:45:25.171Z,14.32
2022-11-05T08:47:59.028Z,12.00
2022-11-05T08:50:28.100Z,9.00
2022-11-05T08:52:55.992Z,5.18
2022-11-05T08:55:23.932Z,10.98
2022-11-05T08:57:57.291Z,9.63
2022-11-05T09:00:25.804Z,9.00
2022-11-05T09:02:53.560Z,11.30
2022-11-05T09:05:21.362Z,15.48
2022-11-05T09:07:50.505Z,8.85
2022-11-05T09:10:18.390Z,13.85
2022-11-05T09:12:46.291Z,7.95
2022-11-05T09:15:14.078Z,8.80
2022-11-05T09:17:42.087Z,11.60
2022-11-05T09:20:12.840Z,9.38
2022-11-05T09:22:43.234Z,16.15
2022-11-05T09:25:12.838Z,14.50
2022-11-05T09:27:40.563Z,15.10
2022-11-05T09:30:10.466Z,14.65
2022-11-05T09:32:39.075Z,11.75
2022-11-05T09:35:07.287Z,18.23
2022-11-05T09:37:35.040Z,17.88
2022-11-05T09:40:02.766Z,11.98
2022-11-05T09:42:38.570Z,19.48
2022-11-05T09:45:10.944Z,14.93
2022-11-05T09:47:42.979Z,18.20
2022-11-05T09:50:16.200Z,7.38
2022-11-05T09:52:44.346Z,16.48
2022-11-05T09:55:29.041Z,12.05
2022-11-05T09:58:01.030Z,13.75
2022-11-05T10:00:30.068Z,8.85
2022-11-05T10:03:01.624Z,12.95
2022-11-05T10:05:29.706Z,15.18
2022-11-05T10:08:02.648Z,18.27
2022-11-05T10:10:41.069Z,12.63
2022-11-05T10:13:21.827Z,21.65
2022-11-05T10:15:59.177Z,15.45
2022-11-05T10:18:33.535Z,10.02
2022-11-05T10:21:01.545Z,17.45
2022-11-05T10:23:29.856Z,13.25
2022-11-05T10:26:01.929Z,10.00
2022-11-05T10:28:32.889Z,21.50
2022-11-05T10:31:02.701Z,14.50
2022-11-05T10:33:34.683Z,22.95
2022-11-05T10:36:06.133Z,23.30
2022-11-05T10:38:34.327Z,25.52
2022-11-05T10:41:29.507Z,19.08
2022-11-05T10:46:39.744Z,18.55
2022-11-05T10:49:24.315Z,18.38
2022-11-05T10:51:56.559Z,23.33
2022-11-05T10:54:32.146Z,23.58
2022-11-05T10:56:59.892Z,18.45
2022-11-05T10:59:31.060Z,31.02
2022-11-05T11:02:01.811Z,25.85
2022-11-05T11:04:37.499Z,26.65
2022-11-05T11:07:06.251Z,12.00
2022-11-05T11:09:36.881Z,13.50
2022-11-05T11:12:08.160Z,17.90
2022-11-05T11:14:37.223Z,10.20
2022-11-05T11:17:24.654Z,12.40
2022-11-05T11:19:53.510Z,19.63
2022-11-05T11:22:22.772Z,15.98
2022-11-05T11:24:53.872Z,15.45
2022-11-05T11:27:25.794Z,10.45
2022-11-05T11:29:59.745Z,11.18
2022-11-05T11:32:32.855Z,8.88
2022-11-05T11:35:01.153Z,8.20
2022-11-05T11:37:31.515Z,11.45
2022-11-05T11:40:03.376Z,15.65
2022-11-05T11:42:34.404Z,12.20
2022-11-05T11:45:08.104Z,17.92
2022-11-05T11:47:35.977Z,17.38
2022-11-05T11:50:03.969Z,15.27
2022-11-05T11:52:33.940Z,15.73
2022-11-05T11:55:22.822Z,13.32
2022-11-05T11:57:53.141Z,9.82
2022-11-05T12:00:26.780Z,16.05
2022-11-05T12:03:25.442Z,8.60
2022-11-05T12:06:01.191Z,10.68
2022-11-05T12:08:45.528Z,8.23
2022-11-05T12:11:19.296Z,13.15
2022-11-05T12:14:00.584Z,9.30
2022-11-05T12:16:45.709Z,6.05
2022-11-05T12:19:24.264Z,8.32
2022-11-05T12:21:59.274Z,11.85
2022-11-05T12:24:46.160Z,4.72
2022-11-05T12:27:24.428Z,7.25
2022-11-05T12:29:59.942Z,9.48
2022-11-05T12:32:46.960Z,12.10
2022-11-05T12:35:28.000Z,8.98
2022-11-05T12:38:04.428Z,8.55
2022-11-05T12:40:43.995Z,8.38
2022-11-05T12:43:19.853Z,7.72
2022-11-05T12:45:55.013Z,8.57
2022-11-05T12:48:43.957Z,11.93
2022-11-05T12:51:22.829Z,12.20
2022-11-05T12:54:04.950Z,11.65
2022-11-05T12:56:37.112Z,10.43
2022-11-05T12:59:13.629Z,6.10
2022-11-05T13:01:46.711Z,8.85
2022-11-05T13:04:24.528Z,8.45
2022-11-05T13:06:55.998Z,13.25
2022-11-05T13:09:28.874Z,12.15
2022-11-05T13:12:00.602Z,9.32
2022-11-05T13:14:31.641Z,8.60
2022-11-05T13:17:04.176Z,9.93
2022-11-05T13:19:38.364Z,9.82
2022-11-05T13:22:17.278Z,11.02
2022-11-05T13:24:50.382Z,6.45
2022-11-05T13:27:38.000Z,7.32
2022-11-05T13:30:07.707Z,6.88
2022-11-05T13:32:38.226Z,5.13
2022-11-05T13:35:15.993Z,7.20
2022-11-05T13:38:07.858Z,5.40
2022-11-05T13:40:46.590Z,4.45
2022-11-05T13:43:30.740Z,3.95
2022-11-05T13:46:19.500Z,7.03
2022-11-05T13:49:16.509Z,12.43
2022-11-05T13:51:51.078Z,3.80
2022-11-05T13:54:48.355Z,8.48
2022-11-05T13:57:35.811Z,6.22
2022-11-05T14:00:12.485Z,7.88
2022-11-05T14:02:44.499Z,7.93
2022-11-05T14:05:28.006Z,9.18
2022-11-05T14:07:59.958Z,9.05
2022-11-05T14:10:35.164Z,8.48
2022-11-05T14:13:17.236Z,5.00
2022-11-05T14:15:57.613Z,6.25
2022-11-05T14:18:40.802Z,4.97
2022-11-05T14:21:31.159Z,6.05
2022-11-05T14:24:18.804Z,5.75
2022-11-05T14:27:25.230Z,8.55
2022-11-05T14:29:55.847Z,8.13
2022-11-05T14:32:42.060Z,9.68
2022-11-05T14:35:36.370Z,6.38
2022-11-05T14:38:06.331Z,12.40
2022-11-05T14:40:38.404Z,5.30
2022-11-05T14:43:08.943Z,8.77
2022-11-05T14:45:39.852Z,10.25
2022-11-05T14:48:25.209Z,10.77
2022-11-05T14:50:53.183Z,11.02
2022-11-05T14:53:32.102Z,9.30
2022-11-05T14:56:04.634Z,5.95
2022-11-05T14:58:35.378Z,7.10
2022-11-05T15:01:06.352Z,7.03
2022-11-05T15:03:54.312Z,5.82
2022-11-05T15:06:27.855Z,7.13
2022-11-05T15:09:04.801Z,9.43
2022-11-05T15:11:38.219Z,6.30
2022-11-05T15:14:13.858Z,2.53
2022-11-05T15:16:44.402Z,3.10
2022-11-05T15:19:24.141Z,5.82
2022-11-05T15:21:54.392Z,3.30
2022-11-05T15:24:23.278Z,7.25
2022-11-05T15:27:00.053Z,7.03
2022-11-05T15:29:30.384Z,5.75
2022-11-05T15:31:59.497Z,9.02
2022-11-05T15:34:29.856Z,10.82
2022-11-05T15:36:59.923Z,8.38
2022-11-05T15:39:34.360Z,9.18
2022-11-05T15:44:40.526Z,9.50
2022-11-05T15:47:18.162Z,9.10
2022-11-05T15:49:50.033Z,10.35
2022-11-05T15:52:20.765Z,8.95
2022-11-05T15:55:08.318Z,8.10
2022-11-05T15:57:40.305Z,8.05
2022-11-05T16:00:17.310Z,10.32
2022-11-05T16:02:53.567Z,12.52
2022-11-05T16:05:21.880Z,14.68
2022-11-05T16:07:49.977Z,10.23
2022-11-05T16:10:20.825Z,13.98
2022-11-05T16:12:50.229Z,16.52
2022-11-05T16:15:21.716Z,9.27
2022-11-05T16:17:52.903Z,12.18
2022-11-05T16:20:27.736Z,9.57
2022-11-05T16:22:58.284Z,8.48
2022-11-05T16:25:33.132Z,10.95
2022-11-05T16:28:02.844Z,10.57
2022-11-05T16:30:30.829Z,16.30
2022-11-05T16:33:05.018Z,12.15
2022-11-05T16:35:33.128Z,13.65
2022-11-05T16:38:02.352Z,9.68
2022-11-05T16:40:30.402Z,9.50
2022-11-05T16:43:17.367Z,11.98
2022-11-05T16:45:45.205Z,3.63
2022-11-05T16:48:14.199Z,5.32
2022-11-05T16:50:42.716Z,5.80
2022-11-05T16:53:10.492Z,6.18
2022-11-05T16:55:39.993Z,8.70
2022-11-05T16:58:16.549Z,17.67
2022-11-05T17:00:45.587Z,14.05
2022-11-05T17:03:13.251Z,15.18
2022-11-05T17:05:41.966Z,15.23
2022-11-05T17:08:10.074Z,15.48
2022-11-05T17:10:37.999Z,15.88
2022-11-05T17:13:05.706Z,14.55
2022-11-05T17:15:35.712Z,9.50
2022-11-05T17:18:06.010Z,11.23
2022-11-05T17:20:40.729Z,13.18
2022-11-05T17:23:10.229Z,15.00
2022-11-05T17:25:39.439Z,16.60
2022-11-05T17:28:07.882Z,13.55
2022-11-05T17:30:35.814Z,12.93
2022-11-05T17:33:05.161Z,13.50
2022-11-05T17:35:33.431Z,15.18
2022-11-05T17:38:01.185Z,14.85
2022-11-05T17:40:29.419Z,14.43
2022-11-05T17:42:57.235Z,10.40
2022-11-05T17:45:24.896Z,12.60
2022-11-05T17:47:52.659Z,11.82
2022-11-05T17:50:22.027Z,16.02
2022-11-05T17:52:49.741Z,13.02
2022-11-05T17:55:17.621Z,9.73
2022-11-05T17:57:47.411Z,15.10
2022-11-05T18:00:17.761Z,14.43
2022-11-05T18:02:48.394Z,18.50
2022-11-05T18:05:17.247Z,12.40
2022-11-05T18:07:46.955Z,10.98
2022-11-05T18:10:15.332Z,17.92
2022-11-05T18:12:43.887Z,13.93
2022-11-05T18:15:11.842Z,17.50
2022-11-05T18:17:39.611Z,13.55
2022-11-05T18:20:14.190Z,19.08
2022-11-05T18:22:47.409Z,15.48
2022-11-05T18:25:15.134Z,17.73
2022-11-05T18:27:43.290Z,14.73
2022-11-05T18:30:14.011Z,15.70
2022-11-05T18:32:42.067Z,16.80
2022-11-05T18:35:10.378Z,13.55
2022-11-05T18:37:38.711Z,14.38
2022-11-05T18:40:09.233Z,14.50
2022-11-05T18:42:37.578Z,16.98
2022-11-05T18:45:06.139Z,13.85
2022-11-05T18:47:34.211Z,21.05
2022-11-05T18:50:01.979Z,19.38
2022-11-05T18:52:31.653Z,16.35
2022-11-05T18:54:59.425Z,21.40
2022-11-05T18:57:29.160Z,17.13
2022-11-05T18:59:56.879Z,14.50
2022-11-05T19:02:24.827Z,8.80
2022-11-05T19:05:26.853Z,12.68
2022-11-05T19:07:40.881Z,19.02
2022-11-05T19:10:09.541Z,13.68
2022-11-05T19:12:38.640Z,23.75
2022-11-05T19:15:08.068Z,17.98
2022-11-05T19:17:36.646Z,18.60
2022-11-05T19:20:06.957Z,15.55
2022-11-05T19:22:35.090Z,19.15
2022-11-05T19:25:03.567Z,13.93
2022-11-05T19:27:32.160Z,16.70
2022-11-05T19:30:01.324Z,20.50
2022-11-05T19:32:29.088Z,19.95
2022-11-05T19:34:56.813Z,22.10
2022-11-05T19:37:24.695Z,26.90
2022-11-05T19:39:53.112Z,24.20
2022-11-05T19:42:21.506Z,25.42
2022-11-05T19:44:49.541Z,23.55
2022-11-05T19:47:19.095Z,28.05
2022-11-05T19:49:46.917Z,25.15
2022-11-05T19:52:14.691Z,25.33
2022-11-05T19:54:42.608Z,21.77
2022-11-05T19:57:10.386Z,22.02
2022-11-05T19:59:38.368Z,21.20
2022-11-05T20:02:09.364Z,26.45
2022-11-05T20:04:40.972Z,23.98
2022-11-05T20:07:09.114Z,24.33
2022-11-05T20:09:36.854Z,28.05
2022-11-05T20:12:04.846Z,31.45
2022-11-05T20:14:33.330Z,26.88
2022-11-05T20:17:01.346Z,25.20
2022-11-05T20:19:29.083Z,30.00
2022-11-05T20:22:00.183Z,33.30
2022-11-05T20:24:27.949Z,30.45
2022-11-05T20:26:57.190Z,28.05
2022-11-05T20:29:35.009Z,25.55
2022-11-05T20:32:04.558Z,23.70
2022-11-05T20:34:33.925Z,29.42
2022-11-05T20:37:03.183Z,29.48
2022-11-05T20:39:31.563Z,27.02
2022-11-05T20:42:00.427Z,25.63
2022-11-05T20:44:28.328Z,29.55
2022-11-05T20:46:56.898Z,26.73
2022-11-05T20:49:25.829Z,27.52
2022-11-05T20:51:54.000Z,24.75
2022-11-05T20:54:23.313Z,20.30
2022-11-05T20:56:51.133Z,24.33
2022-11-05T20:59:19.381Z,21.08
2022-11-05T21:01:47.345Z,24.00
2022-11-05T21:04:15.167Z,27.17
2022-11-05T21:06:42.876Z,23.33
2022-11-05T21:09:10.601Z,24.92
2022-11-05T21:11:53.572Z,24.73
2022-11-05T21:14:21.332Z,23.65
2022-11-05T21:16:49.034Z,23.63
2022-11-05T21:19:16.757Z,29.20
2022-11-05T21:21:44.491Z,22.38
2022-11-05T21:24:12.171Z,29.27
2022-11-05T21:26:41.265Z,27.58
2022-11-05T21:29:09.020Z,26.27
2022-11-05T21:31:37.248Z,23.60
2022-11-05T21:34:05.215Z,26.40
2022-11-05T21:36:32.900Z,25.67
2022-11-05T21:39:00.629Z,23.42
2022-11-05T21:41:28.322Z,30.33
2022-11-05T21:43:57.422Z,23.52
2022-11-05T21:46:25.403Z,22.25
2022-11-05T21:48:53.234Z,24.88
2022-11-05T21:51:38.378Z,16.63
2022-11-05T21:54:23.772Z,21.90
2022-11-05T21:57:12.126Z,22.17
2022-11-05T21:59:51.824Z,20.63
2022-11-05T22:02:21.537Z,25.45
2022-11-05T22:04:51.884Z,19.13
2022-11-05T22:07:21.162Z,23.55
2022-11-05T22:09:49.410Z,26.35
2022-11-05T22:12:17.487Z,27.52
2022-11-05T22:14:46.636Z,26.92
2022-11-05T22:17:16.062Z,24.38
2022-11-05T22:19:46.375Z,23.55
2022-11-05T22:22:14.236Z,26.80
2022-11-05T22:24:42.235Z,28.02
2022-11-05T22:27:13.677Z,23.88
2022-11-05T22:29:41.760Z,24.50
2022-11-05T22:32:11.622Z,22.13
2022-11-05T22:34:39.399Z,25.67
2022-11-05T22:37:07.807Z,29.92
2022-11-05T22:39:35.535Z,34.10
2022-11-05T22:42:08.302Z,30.60
2022-11-05T22:44:37.233Z,34.53
2022-11-05T22:47:05.358Z,37.38
2022-11-05T22:49:34.520Z,29.13
2022-11-05T22:52:02.344Z,32.00
2022-11-05T22:54:33.868Z,29.75
2022-11-05T22:57:04.430Z,36.30
2022-11-05T22:59:32.286Z,33.42
2022-11-05T23:02:02.911Z,30.23
2022-11-05T23:04:35.798Z,28.77
2022-11-05T23:07:26.104Z,26.55
2022-11-05T23:10:12.776Z,24.80
2022-11-05T23:12:42.637Z,29.92
2022-11-05T23:15:30.920Z,29.17
2022-11-05T23:18:16.327Z,23.80
2022-11-05T23:21:03.092Z,26.83
2022-11-05T23:23:48.424Z,28.60
2022-11-05T23:26:33.758Z,28.27
2022-11-05T23:29:01.459Z,35.50
2022-11-05T23:31:46.938Z,33.50
2022-11-05T23:34:14.658Z,33.88
2022-11-05T23:37:01.182Z,42.67
2022-11-05T23:39:28.900Z,30.85
2022-11-05T23:42:14.071Z,29.77
2022-11-05T23:44:59.431Z,35.97
2022-11-05T23:47:44.636Z,36.80
2022-11-05T23:50:12.505Z,32.47
2022-11-05T23:52:41.554Z,35.25
2022-11-05T23:55:09.854Z,37.67
2022-11-05T23:57:38.031Z,33.35
